Time;durP1;ratioP1;P1;durP2;ratioP2;P2;SDS_P1;SDS_P2;PMS_P1;PMS_P2;Temp;Humidity;BMP_temperature;BMP_pressure;BME280_temperature;BME280_humidity;BME280_pressure;Samples;Min_cycle;Max_cycle;Signal;HPM_P1;HPM_P2
2022/06/23 00:00:35;;;;;;;73.20;36.90;;;;;;;16.96;100.00;95840.16;2074031;28;20056;-65
2022/06/23 00:01:45;;;;;;;69.18;36.85;;;;;;;16.98;100.00;95844.34;2074024;28;20057;-64
2022/06/23 00:02:46;;;;;;;67.43;35.22;;;;;;;17.00;100.00;95846.00;2075785;28;20511;-64
2022/06/23 00:03:48;;;;;;;57.90;34.30;;;;;;;17.02;100.00;95844.94;2081429;28;20064;-65
2022/06/23 00:04:50;;;;;;;51.33;31.67;;;;;;;17.03;100.00;95843.16;2089668;28;20045;-65
2022/06/23 00:05:56;;;;;;;58.47;33.65;;;;;;;17.02;100.00;95831.81;2081460;28;20059;-66
2022/06/23 00:07:00;;;;;;;59.15;34.97;;;;;;;17.04;100.00;95836.94;2065994;28;20050;-66
2022/06/23 00:08:01;;;;;;;65.20;35.45;;;;;;;17.02;100.00;95836.22;2057373;28;20051;-65
2022/06/23 00:09:39;;;;;;;62.85;33.85;;;;;;;17.01;100.00;95835.41;2073041;28;20050;-64
2022/06/23 00:10:45;;;;;;;51.28;30.15;;;;;;;17.06;100.00;95835.06;2092848;28;20033;-64
2022/06/23 00:11:48;;;;;;;47.60;29.98;;;;;;;17.05;100.00;95833.38;2081543;28;20037;-65
2022/06/23 00:12:49;;;;;;;43.83;27.95;;;;;;;17.07;100.00;95836.72;2073558;28;20042;-66
2022/06/23 00:13:51;;;;;;;45.60;29.35;;;;;;;17.07;100.00;95839.34;2065487;28;20045;-64
2022/06/23 00:14:54;;;;;;;47.58;28.38;;;;;;;17.05;100.00;95839.44;2056831;28;20046;-65
2022/06/23 00:15:55;;;;;;;47.22;30.63;;;;;;;17.05;100.00;95838.63;2066178;28;20483;-64
2022/06/23 00:16:56;;;;;;;42.55;28.30;;;;;;;17.03;100.00;95833.50;2081925;28;20053;-65
2022/06/23 00:18:00;;;;;;;47.97;30.02;;;;;;;17.01;100.00;95842.44;2065096;28;20528;-66
2022/06/23 00:19:02;;;;;;;42.65;27.95;;;;;;;17.03;100.00;95837.91;2058403;28;20055;-65
2022/06/23 00:20:09;;;;;;;41.03;27.33;;;;;;;17.01;100.00;95840.63;2073626;28;20057;-64
2022/06/23 00:21:28;;;;;;;41.92;27.25;;;;;;;17.01;100.00;95843.25;2074091;28;20053;-65
2022/06/23 00:22:30;;;;;;;42.92;26.63;;;;;;;16.96;100.00;95848.03;2075707;28;20053;-65
2022/06/23 00:23:34;;;;;;;41.90;26.23;;;;;;;16.94;100.00;95842.88;2065511;28;20519;-64
2022/06/23 00:24:36;;;;;;;36.58;24.23;;;;;;;16.95;100.00;95841.94;2074104;28;20037;-63
2022/06/23 00:26:14;;;;;;;41.55;25.20;;;;;;;16.95;100.00;95844.56;2072928;28;20642;-66
2022/06/23 00:27:16;;;;;;;42.22;25.95;;;;;;;16.88;100.00;95832.84;2069580;28;20048;-65
2022/06/23 00:28:21;;;;;;;50.17;28.48;;;;;;;16.85;100.00;95840.94;2057142;28;20448;-65
2022/06/23 00:29:22;;;;;;;50.00;28.63;;;;;;;16.84;100.00;95839.28;2073876;28;20049;-66
2022/06/23 00:30:29;;;;;;;51.72;28.65;;;;;;;16.84;100.00;95847.16;2073264;28;20482;-65
2022/06/23 00:31:33;;;;;;;42.83;27.48;;;;;;;16.81;100.00;95834.25;2073683;28;20565;-66
2022/06/23 00:32:34;;;;;;;42.17;27.08;;;;;;;16.85;100.00;95837.50;2066235;28;20042;-65
2022/06/23 00:33:38;;;;;;;44.22;27.45;;;;;;;16.82;100.00;95833.31;2056713;28;20043;-64
2022/06/23 00:34:41;;;;;;;53.92;29.13;;;;;;;16.85;100.00;95837.50;2057758;28;20061;-63
2022/06/23 00:35:43;;;;;;;46.55;29.23;;;;;;;16.87;100.00;95832.97;2064846;28;20053;-64
2022/06/23 00:36:49;;;;;;;52.35;30.00;;;;;;;16.88;100.00;95830.22;2056915;28;20054;-64
2022/06/23 00:37:51;;;;;;;49.75;29.42;;;;;;;16.83;100.00;95824.50;2074930;28;20064;-65
2022/06/23 00:38:52;;;;;;;53.85;31.05;;;;;;;16.86;100.00;95837.38;2080261;28;20463;-66
2022/06/23 00:39:56;;;;;;;49.10;29.48;;;;;;;16.85;100.00;95834.88;2072562;28;20046;-64
2022/06/23 00:40:59;;;;;;;50.28;29.52;;;;;;;16.85;100.00;95830.47;2073111;28;20053;-63
2022/06/23 00:42:01;;;;;;;50.13;28.42;;;;;;;16.85;100.00;95845.38;2072599;28;20546;-64
2022/06/23 00:43:03;;;;;;;55.22;31.80;;;;;;;16.85;100.00;95845.38;2089020;28;20526;-64
2022/06/23 00:44:06;;;;;;;80.75;37.40;;;;;;;16.80;100.00;95839.63;2089422;28;20049;-63
2022/06/23 00:45:22;;;;;;;75.40;34.30;;;;;;;16.74;100.00;95849.59;2081568;28;20069;-64
2022/06/23 00:46:23;;;;;;;58.65;31.45;;;;;;;16.74;100.00;95849.59;2074397;28;20061;-65
2022/06/23 00:47:29;;;;;;;72.78;35.47;;;;;;;16.77;100.00;95843.31;2080409;28;20759;-65
2022/06/23 00:48:40;;;;;;;64.18;34.95;;;;;;;16.79;100.00;95845.84;2080656;28;20050;-64
2022/06/23 00:49:50;;;;;;;56.88;30.73;;;;;;;16.81;100.00;95841.28;2075646;28;20037;-66
2022/06/23 00:51:11;;;;;;;48.72;30.95;;;;;;;16.84;100.00;95846.28;2081888;28;20041;-65
2022/06/23 00:52:18;;;;;;;51.33;30.17;;;;;;;16.85;100.00;95845.38;2088573;28;20411;-65
2022/06/23 00:53:26;;;;;;;46.33;28.02;;;;;;;16.85;100.00;95848.81;2066060;28;20050;-66
2022/06/23 00:54:31;;;;;;;48.58;28.85;;;;;;;16.86;100.00;95839.16;2059515;28;20551;-65
2022/06/23 00:55:40;;;;;;;45.40;28.60;;;;;;;16.85;100.00;95846.19;2081783;28;20519;-65
2022/06/23 00:56:47;;;;;;;45.63;26.35;;;;;;;16.86;100.00;95839.16;2073206;28;20044;-65
2022/06/23 00:57:52;;;;;;;46.90;29.15;;;;;;;16.84;100.00;95834.03;2074383;28;20060;-64
2022/06/23 00:58:59;;;;;;;39.60;27.13;;;;;;;16.85;100.00;95840.94;2072731;28;20045;-65
2022/06/23 01:00:22;;;;;;;45.70;28.80;;;;;;;16.88;100.00;95845.13;2074100;28;20053;-64
2022/06/23 01:01:39;;;;;;;51.00;30.25;;;;;;;16.89;100.00;95845.03;2042356;28;20046;-62
2022/06/23 01:02:51;;;;;;;47.65;29.10;;;;;;;16.90;100.00;95846.69;2048228;29;20050;-63
2022/06/23 01:04:04;;;;;;;49.38;31.48;;;;;;;16.88;100.00;95840.72;2028520;29;20040;-62
2022/06/23 01:05:11;;;;;;;53.95;32.40;;;;;;;16.94;100.00;95852.53;2027987;29;20055;-63
2022/06/23 01:06:25;;;;;;;47.65;31.80;;;;;;;16.92;100.00;95846.56;2034528;29;20059;-63
2022/06/23 01:07:38;;;;;;;55.53;32.42;;;;;;;16.91;100.00;95842.28;2034417;29;20044;-63
2022/06/23 01:08:46;;;;;;;54.72;35.08;;;;;;;16.84;100.00;95830.56;2037328;28;20044;-61
2022/06/23 01:09:51;;;;;;;64.07;35.75;;;;;;;16.92;100.00;95836.94;2049398;28;20043;-62
2022/06/23 01:10:55;;;;;;;61.60;35.67;;;;;;;16.94;100.00;95839.41;2047637;28;20049;-62
2022/06/23 01:12:04;;;;;;;76.15;41.35;;;;;;;16.91;100.00;95835.25;2040843;29;20049;-62
2022/06/23 01:13:06;;;;;;;67.88;37.00;;;;;;;16.91;100.00;95840.47;2042096;29;20043;-62
2022/06/23 01:14:30;;;;;;;64.60;38.03;;;;;;;16.93;100.00;95833.34;2040910;29;20465;-62
2022/06/23 01:15:54;;;;;;;72.20;40.15;;;;;;;16.93;100.00;95837.75;2051305;28;20054;-62
2022/06/23 01:17:02;;;;;;;76.13;41.60;;;;;;;16.95;100.00;95844.56;2043380;29;20505;-62
2022/06/23 01:18:11;;;;;;;57.20;34.47;;;;;;;16.95;100.00;95841.13;2034817;29;20059;-62
2022/06/23 01:19:32;;;;;;;80.88;41.03;;;;;;;16.92;100.00;95852.66;2043744;28;20636;-64
2022/06/23 01:20:58;;;;;;;69.40;37.70;;;;;;;16.94;100.00;95847.28;2050929;28;20049;-63
2022/06/23 01:22:02;;;;;;;63.17;38.50;;;;;;;16.91;100.00;95850.97;2046521;29;20062;-63
2022/06/23 01:23:18;;;;;;;67.72;37.97;;;;;;;16.92;100.00;95849.19;2033541;29;20044;-63
2022/06/23 01:24:36;;;;;;;75.55;41.88;;;;;;;16.89;100.00;95858.16;2044917;28;20237;-63
2022/06/23 01:25:51;;;;;;;81.85;42.47;;;;;;;16.88;100.00;95856.44;2051085;28;20050;-62
2022/06/23 01:27:32;;;;;;;66.18;38.45;;;;;;;16.89;100.00;95854.66;2040926;29;20051;-62
2022/06/23 01:28:36;;;;;;;89.70;44.33;;;;;;;16.88;100.00;95860.88;2049967;28;20436;-63
2022/06/23 01:29:42;;;;;;;79.05;42.55;;;;;;;16.85;100.00;95864.56;2056603;28;20077;-62
2022/06/23 01:30:52;;;;;;;81.22;44.78;;;;;;;16.84;100.00;95856.78;2056390;28;20440;-62
2022/06/23 01:31:56;;;;;;;89.78;46.13;;;;;;;16.85;100.00;95858.47;2056070;28;20049;-64
2022/06/23 01:33:14;;;;;;;90.30;45.67;;;;;;;16.84;100.00;95862.03;2056333;28;20047;-63
2022/06/23 01:34:38;;;;;;;64.22;37.15;;;;;;;16.82;100.00;95869.19;2048253;29;20054;-64
2022/06/23 01:35:45;;;;;;;62.92;36.35;;;;;;;16.83;100.00;95868.25;2035487;29;20541;-61
2022/06/23 01:36:49;;;;;;;55.92;35.30;;;;;;;16.83;100.00;95866.44;2035487;29;20414;-62
2022/06/23 01:37:50;;;;;;;94.78;46.78;;;;;;;16.86;100.00;95870.63;2032805;29;20446;-63
2022/06/23 01:39:06;;;;;;;100.47;47.58;;;;;;;16.83;100.00;95868.25;2032741;29;20051;-63
2022/06/23 01:40:25;;;;;;;61.10;37.83;;;;;;;16.86;100.00;95868.84;2042111;29;20047;-63
2022/06/23 01:41:39;;;;;;;83.28;42.90;;;;;;;16.84;100.00;95878.63;2047681;29;20052;-62
2022/06/23 01:42:51;;;;;;;60.45;36.47;;;;;;;16.85;100.00;95876.84;2041769;29;20055;-62
2022/06/23 01:44:13;;;;;;;63.17;36.40;;;;;;;16.90;100.00;95867.69;2032882;29;20060;-62
2022/06/23 01:45:23;;;;;;;55.75;35.40;;;;;;;16.87;100.00;95878.41;2045957;28;20046;-63
2022/06/23 01:46:29;;;;;;;58.53;36.45;;;;;;;16.94;100.00;95876.13;2038979;29;20055;-63
2022/06/23 01:47:35;;;;;;;73.90;40.50;;;;;;;16.89;100.00;95878.25;2026545;29;20138;-62
2022/06/23 01:48:51;;;;;;;52.45;35.40;;;;;;;16.94;100.00;95876.13;2034188;29;20048;-63
2022/06/23 01:49:56;;;;;;;55.25;34.22;;;;;;;16.93;100.00;95884.97;2042754;29;20043;-62
2022/06/23 01:50:57;;;;;;;64.68;39.42;;;;;;;16.94;100.00;95879.59;2047550;29;20541;-62
2022/06/23 01:52:09;;;;;;;73.13;40.50;;;;;;;16.92;100.00;95876.28;2040528;29;20048;-62
2022/06/23 01:53:18;;;;;;;60.35;37.55;;;;;;;16.93;100.00;95883.19;2026192;29;20059;-63
2022/06/23 01:54:27;;;;;;;70.75;39.53;;;;;;;16.95;100.00;95888.31;2036439;28;20059;-62
2022/06/23 01:55:34;;;;;;;66.78;38.65;;;;;;;16.95;100.00;95888.31;2033159;29;20047;-63
2022/06/23 01:56:53;;;;;;;64.25;39.90;;;;;;;16.97;100.00;95884.63;2026484;29;20503;-62
2022/06/23 01:58:00;;;;;;;62.33;38.53;;;;;;;17.02;100.00;95886.06;2037050;29;20051;-63
2022/06/23 01:59:24;;;;;;;63.88;39.08;;;;;;;17.02;100.00;95883.44;2033814;29;20063;-63
2022/06/23 02:00:25;;;;;;;72.93;41.17;;;;;;;16.99;100.00;95884.50;2039083;29;20039;-63
2022/06/23 02:01:31;;;;;;;86.47;43.95;;;;;;;17.00;100.00;95886.19;2039840;29;20048;-63
2022/06/23 02:02:58;;;;;;;54.10;33.80;;;;;;;17.03;100.00;95893.00;2039967;29;20055;-63
2022/06/23 02:04:07;;;;;;;76.95;40.90;;;;;;;17.03;100.00;95898.25;2031128;29;20043;-62
2022/06/23 02:05:12;;;;;;;61.78;35.75;;;;;;;17.02;100.00;95891.31;2026181;29;20044;-63
2022/06/23 02:06:18;;;;;;;55.83;34.17;;;;;;;17.03;100.00;95885.13;2033419;29;20059;-62
2022/06/23 02:07:27;;;;;;;59.85;36.90;;;;;;;17.05;100.00;95897.16;2033603;29;20048;-62
2022/06/23 02:08:35;;;;;;;;;;;;;;;17.06;100.00;95895.41;2027616;29;20119;-64
2022/06/23 02:09:43;;;;;;;44.13;30.83;;;;;;;17.03;100.00;95895.63;2050336;28;19914;-63
2022/06/23 02:10:52;;;;;;;42.13;26.70;;;;;;;17.01;100.00;95894.91;2047070;29;20161;-63
2022/06/23 02:11:54;;;;;;;45.67;28.25;;;;;;;16.94;100.00;95895.34;2040494;29;20039;-63
2022/06/23 02:13:18;;;;;;;46.10;29.63;;;;;;;16.93;100.00;95893.66;2040595;29;20549;-62
2022/06/23 02:14:42;;;;;;;41.20;28.73;;;;;;;16.93;100.00;95895.47;2048315;29;20136;-64
2022/06/23 02:16:10;;;;;;;53.00;31.35;;;;;;;16.90;100.00;95895.69;2040251;29;20055;-62
2022/06/23 02:17:33;;;;;;;52.20;30.48;;;;;;;16.86;100.00;95899.47;2039786;29;20095;-62
2022/06/23 02:18:55;;;;;;;47.38;30.27;;;;;;;16.84;100.00;95899.59;2048659;29;20051;-62
2022/06/23 02:19:56;;;;;;;50.92;29.67;;;;;;;16.84;100.00;95904.84;2048002;29;20042;-62
2022/06/23 02:21:10;;;;;;;46.70;28.00;;;;;;;16.83;100.00;95905.78;2040238;29;20557;-63
2022/06/23 02:22:16;;;;;;;49.53;28.13;;;;;;;16.77;100.00;95901.00;2034028;29;20449;-62
2022/06/23 02:23:37;;;;;;;52.22;30.02;;;;;;;16.80;100.00;95900.78;2035024;29;20040;-62
2022/06/23 02:24:59;;;;;;;49.08;29.15;;;;;;;16.75;100.00;95908.09;2035432;29;20035;-61
2022/06/23 02:26:24;;;;;;;39.67;25.10;;;;;;;16.71;100.00;95898.81;2047449;28;20050;-63
2022/06/23 02:27:33;;;;;;;49.90;28.67;;;;;;;16.66;100.00;95903.53;2048130;29;20557;-62
2022/06/23 02:28:57;;;;;;;49.63;26.73;;;;;;;16.66;100.00;95904.38;2047787;29;20050;-61
2022/06/23 02:29:59;;;;;;;48.17;29.73;;;;;;;16.64;100.00;95900.19;2040013;29;20043;-62
2022/06/23 02:31:20;;;;;;;54.08;30.48;;;;;;;16.61;100.00;95910.91;2040083;28;20414;-63
2022/06/23 02:32:49;;;;;;;41.42;27.13;;;;;;;16.60;100.00;95903.97;2042766;29;20062;-64
2022/06/23 02:33:59;;;;;;;49.17;29.98;;;;;;;16.54;100.00;95911.34;2047845;29;20043;-62
2022/06/23 02:35:08;;;;;;;46.00;26.70;;;;;;;16.48;100.00;95903.09;2041093;29;20065;-62
2022/06/23 02:36:44;;;;;;;48.60;28.27;;;;;;;16.44;100.00;95909.47;2041391;29;20386;-62
2022/06/23 02:37:51;;;;;;;44.28;26.52;;;;;;;16.43;100.00;95902.56;2048312;29;20441;-62
2022/06/23 02:38:54;;;;;;;48.80;28.25;;;;;;;16.42;100.00;95901.75;2048626;28;20054;-65
2022/06/23 02:39:56;;;;;;;47.85;28.30;;;;;;;16.37;100.00;95900.41;2047727;29;20047;-62
2022/06/23 02:41:05;;;;;;;49.97;28.63;;;;;;;16.36;100.00;95901.34;2033064;29;20055;-63
2022/06/23 02:42:34;;;;;;;56.90;31.38;;;;;;;16.30;100.00;95908.72;2041305;29;20048;-63
2022/06/23 02:43:41;;;;;;;57.78;30.63;;;;;;;16.25;100.00;95909.97;2044552;29;20058;-62
2022/06/23 02:44:58;;;;;;;52.40;29.40;;;;;;;16.26;100.00;95898.56;2041173;29;20047;-64
2022/06/23 02:46:19;;;;;;;42.03;27.75;;;;;;;16.23;100.00;95901.41;2048288;29;20074;-63
2022/06/23 02:47:48;;;;;;;63.30;31.40;;;;;;;16.22;100.00;95910.19;2047721;29;20063;-63
2022/06/23 02:48:50;;;;;;;;;;;;;;;16.19;100.00;95916.47;2040086;29;20051;-62
2022/06/23 02:50:08;;;;;;;44.40;28.33;;;;;;;16.21;100.00;95911.97;2040490;29;19918;-62
2022/06/23 02:51:34;;;;;;;53.78;30.35;;;;;;;16.19;100.00;95910.41;2052188;29;20054;-62
2022/06/23 02:52:43;;;;;;;51.05;30.00;;;;;;;16.16;100.00;95911.47;2033056;29;20438;-63
2022/06/23 02:53:47;;;;;;;46.28;28.65;;;;;;;16.14;100.00;95915.13;2038846;29;20054;-62
2022/06/23 02:55:12;;;;;;;49.13;27.95;;;;;;;16.13;100.00;95914.31;2048268;28;20043;-61
2022/06/23 02:56:27;;;;;;;62.45;31.33;;;;;;;16.09;100.00;95916.31;2048397;29;20054;-62
2022/06/23 02:57:29;;;;;;;55.97;32.15;;;;;;;16.09;100.00;95918.06;2037434;29;20048;-61
2022/06/23 02:58:40;;;;;;;52.88;31.35;;;;;;;16.09;100.00;95923.31;2040669;29;20055;-62
2022/06/23 02:59:52;;;;;;;47.90;29.02;;;;;;;16.09;100.00;95921.56;2040020;29;20043;-62
2022/06/23 03:01:05;;;;;;;55.17;31.70;;;;;;;16.14;100.00;95918.59;2034849;29;20047;-62
2022/06/23 03:02:28;;;;;;;44.58;27.98;;;;;;;16.10;100.00;95917.97;2033361;29;20052;-62
2022/06/23 03:03:55;;;;;;;33.38;22.90;;;;;;;16.11;100.00;95924.03;2038899;29;20052;-63
2022/06/23 03:05:03;;;;;;;44.35;26.98;;;;;;;16.15;100.00;95927.31;2043316;29;20051;-64
2022/06/23 03:06:24;;;;;;;46.15;28.90;;;;;;;16.09;100.00;95926.78;2035594;29;20048;-63
2022/06/23 03:07:32;;;;;;;43.63;24.20;;;;;;;16.14;100.00;95925.59;2043485;29;20395;-64
2022/06/23 03:08:45;;;;;;;46.88;25.92;;;;;;;16.11;100.00;95931.91;2049562;29;20051;-63
2022/06/23 03:09:49;;;;;;;43.78;26.38;;;;;;;16.12;100.00;95927.50;2049700;29;20051;-63
2022/06/23 03:10:59;;;;;;;43.60;25.63;;;;;;;16.16;100.00;95929.78;2041819;29;20063;-62
2022/06/23 03:13:18;;;;;;;34.42;23.67;;;;;;;16.09;100.00;95920.69;2042755;29;20103;-62
2022/06/23 03:14:24;;;;;;;35.58;24.33;;;;;;;16.15;100.00;95925.50;2034613;29;20048;-62
2022/06/23 03:15:31;;;;;;;38.70;24.85;;;;;;;16.22;100.00;95925.91;2035517;29;20048;-62
2022/06/23 03:16:32;;;;;;;45.20;25.27;;;;;;;16.18;100.00;95924.47;2042267;29;20521;-62
2022/06/23 03:17:39;;;;;;;46.08;24.17;;;;;;;16.14;100.00;95929.06;2041361;29;20043;-62
2022/06/23 03:19:06;;;;;;;42.60;25.30;;;;;;;16.14;100.00;95930.84;2042157;29;20039;-62
2022/06/23 03:20:33;;;;;;;41.72;23.85;;;;;;;16.13;100.00;95921.31;2052150;28;20043;-61
2022/06/23 03:21:41;;;;;;;34.67;20.50;;;;;;;16.15;100.00;95920.28;2041525;29;20056;-63
2022/06/23 03:22:59;;;;;;;33.55;22.17;;;;;;;16.12;100.00;95924.88;2028025;29;20569;-63
2022/06/23 03:24:06;;;;;;;44.90;25.17;;;;;;;16.09;100.00;95920.69;2037856;29;20044;-65
2022/06/23 03:25:31;;;;;;;46.40;26.40;;;;;;;16.02;100.00;95924.69;2026637;29;20048;-61
2022/06/23 03:26:56;;;;;;;51.78;24.77;;;;;;;15.98;100.00;95923.22;2035998;29;20517;-62
2022/06/23 03:28:19;;;;;;;46.00;26.33;;;;;;;15.95;100.00;95926.91;2052858;28;20030;-64
2022/06/23 03:29:31;;;;;;;46.70;23.80;;;;;;;15.90;100.00;95926.38;2049045;29;20054;-62
2022/06/23 03:30:39;;;;;;;45.38;24.42;;;;;;;15.85;100.00;95928.47;2029506;29;20048;-64
2022/06/23 03:32:01;;;;;;;35.28;23.02;;;;;;;15.83;100.00;95930.38;2028766;29;20138;-63
2022/06/23 03:33:42;;;;;;;31.90;21.38;;;;;;;15.79;100.00;95928.91;2057201;28;20051;-63
2022/06/23 03:35:13;;;;;;;37.92;20.58;;;;;;;15.79;100.00;95924.50;2057004;28;20390;-62
2022/06/23 03:36:37;;;;;;;36.63;20.80;;;;;;;15.77;100.00;95925.53;2052986;28;20047;-63
2022/06/23 03:38:01;;;;;;;40.50;22.48;;;;;;;15.73;100.00;95921.47;2049288;29;20047;-63
2022/06/23 03:42:15;;;;;;;34.33;20.25;;;;;;;15.62;100.00;95923.03;2055687;28;20073;-63
2022/06/23 03:43:27;;;;;;;40.85;21.65;;;;;;;15.61;100.00;95920.50;2050578;28;20058;-62
2022/06/23 03:44:34;;;;;;;28.70;18.92;;;;;;;15.64;100.00;95925.53;2051034;28;20382;-62
2022/06/23 03:45:41;;;;;;;36.38;19.60;;;;;;;15.59;100.00;95919.78;2049065;29;20047;-65
2022/06/23 03:46:51;;;;;;;32.35;21.13;;;;;;;15.59;100.00;95914.56;2049978;28;20051;-62
2022/06/23 03:48:05;;;;;;;34.72;20.23;;;;;;;15.55;100.00;95916.53;2056876;28;20432;-62
2022/06/23 03:49:18;;;;;;;30.98;17.95;;;;;;;15.56;100.00;95917.38;2026972;29;20053;-62
2022/06/23 03:50:24;;;;;;;33.13;18.55;;;;;;;15.54;100.00;95920.09;2032542;28;20059;-63
2022/06/23 03:51:31;;;;;;;37.33;20.67;;;;;;;15.54;100.00;95925.31;2033349;29;20047;-62
2022/06/23 03:52:42;;;;;;;38.47;20.27;;;;;;;15.52;100.00;95926.38;2042974;28;20107;-62
2022/06/23 03:53:50;;;;;;;33.13;19.67;;;;;;;15.47;100.00;95928.47;2042382;29;20043;-63
2022/06/23 03:54:58;;;;;;;30.63;18.48;;;;;;;15.45;100.00;95928.56;2035471;29;20047;-65
2022/06/23 03:55:59;;;;;;;34.65;20.40;;;;;;;15.43;100.00;95938.31;2042808;28;20055;-62
2022/06/23 03:57:05;;;;;;;41.80;21.60;;;;;;;15.43;100.00;95935.69;2049107;29;20047;-63
2022/06/23 03:58:18;;;;;;;41.78;24.13;;;;;;;15.43;100.00;95930.47;2049682;28;20047;-62
2022/06/23 03:59:41;;;;;;;46.33;23.35;;;;;;;15.43;100.00;95930.47;2050776;28;20051;-60
2022/06/23 04:00:42;;;;;;;45.20;21.67;;;;;;;15.40;100.00;95930.66;2052446;28;20047;-62
2022/06/23 04:01:47;;;;;;;35.03;19.90;;;;;;;15.42;100.00;95931.38;2049446;28;20063;-63
2022/06/23 04:02:58;;;;;;;37.97;22.27;;;;;;;15.41;100.00;95927.09;2056873;28;20536;-64
2022/06/23 04:04:05;;;;;;;37.35;20.95;;;;;;;15.42;100.00;95929.63;2033621;29;20040;-65
2022/06/23 04:05:10;;;;;;;43.72;22.33;;;;;;;15.42;100.00;95929.63;2029675;28;20048;-63
2022/06/23 04:06:31;;;;;;;30.60;18.90;;;;;;;15.43;100.00;95931.28;2049339;28;20512;-62
2022/06/23 04:07:39;;;;;;;31.55;18.73;;;;;;;15.49;100.00;95926.59;2057159;28;20055;-63
2022/06/23 04:08:45;;;;;;;35.17;19.98;;;;;;;15.52;100.00;95927.19;2058217;28;20409;-62
2022/06/23 04:09:46;;;;;;;32.92;19.98;;;;;;;15.52;100.00;95926.38;2056938;28;20042;-62
2022/06/23 04:10:47;;;;;;;37.08;19.83;;;;;;;15.50;100.00;95939.53;2041291;29;20457;-62
2022/06/23 04:13:16;;;;;;;35.25;20.58;;;;;;;15.50;100.00;95939.53;2051114;28;20051;-62
2022/06/23 04:14:26;;;;;;;32.15;17.65;;;;;;;15.58;100.00;95928.56;2048907;29;20047;-63
2022/06/23 04:15:36;;;;;;;29.92;19.02;;;;;;;15.59;100.00;95923.22;2050459;28;20122;-62
2022/06/23 04:16:37;;;;;;;28.52;17.13;;;;;;;15.64;100.00;95936.84;2050012;28;20058;-62
2022/06/23 04:17:39;;;;;;;28.90;18.75;;;;;;;15.62;100.00;95925.63;2040982;29;20035;-59
2022/06/23 04:18:42;;;;;;;29.55;18.80;;;;;;;15.64;100.00;95931.63;2049056;28;20460;-60
2022/06/23 04:19:45;;;;;;;29.48;19.63;;;;;;;15.70;100.00;95927.75;2048658;29;20058;-62
2022/06/23 04:20:53;;;;;;;25.05;18.30;;;;;;;15.73;100.00;95929.34;2049238;28;20043;-64
2022/06/23 04:22:09;;;;;;;25.63;16.70;;;;;;;15.75;100.00;95936.16;2057237;28;20047;-61
2022/06/23 04:23:10;;;;;;;35.70;19.92;;;;;;;15.75;100.00;95933.53;2056825;28;20436;-62
2022/06/23 04:24:16;;;;;;;26.48;15.85;;;;;;;15.77;100.00;95931.66;2057029;28;20062;-62
2022/06/23 04:25:20;;;;;;;29.45;15.13;;;;;;;15.81;100.00;95942.75;2056959;28;20047;-65
2022/06/23 04:26:28;;;;;;;27.52;16.70;;;;;;;15.88;100.00;95944.00;2057329;28;20057;-65
2022/06/23 04:27:51;;;;;;;27.52;15.10;;;;;;;15.82;100.00;95940.03;2063984;28;20057;-61
2022/06/23 04:28:55;;;;;;;26.42;14.38;;;;;;;15.82;100.00;95944.41;2056373;28;20046;-62
2022/06/23 04:29:57;;;;;;;27.00;14.30;;;;;;;15.78;100.00;95940.34;2041413;29;20059;-62
2022/06/23 04:31:00;;;;;;;24.98;14.05;;;;;;;15.76;100.00;95932.56;2041088;28;20051;-62
2022/06/23 04:32:02;;;;;;;26.98;14.05;;;;;;;15.87;100.00;95947.53;2056963;28;20059;-62
2022/06/23 04:33:05;;;;;;;21.15;11.70;;;;;;;15.83;100.00;95948.72;2049041;29;20043;-65
2022/06/23 04:34:12;;;;;;;22.70;11.70;;;;;;;15.90;100.00;95949.09;2040836;29;20537;-62
2022/06/23 04:35:15;;;;;;;20.98;11.98;;;;;;;15.90;100.00;95949.09;2041894;28;20486;-62
2022/06/23 04:36:21;;;;;;;17.33;10.90;;;;;;;15.80;100.00;95944.53;2049168;29;20059;-63
2022/06/23 04:37:27;;;;;;;17.52;10.18;;;;;;;15.82;99.72;95949.63;2042207;29;20055;-63
2022/06/23 04:38:41;;;;;;;22.02;11.18;;;;;;;15.86;99.12;95951.13;2041531;29;20051;-63
2022/06/23 04:39:42;;;;;;;18.33;9.50;;;;;;;15.82;99.34;95947.88;2035661;29;20055;-62
2022/06/23 04:40:49;;;;;;;20.27;9.63;;;;;;;15.83;99.52;95951.34;2041650;29;20040;-63
2022/06/23 04:42:11;;;;;;;19.75;9.95;;;;;;;15.83;99.51;95946.94;2048750;29;20043;-63
2022/06/23 04:43:35;;;;;;;15.75;8.57;;;;;;;15.82;99.42;95947.03;2043484;29;20050;-62
2022/06/23 04:44:37;;;;;;;14.27;8.85;;;;;;;15.84;99.36;95942.53;2047215;29;20050;-62
2022/06/23 04:45:55;;;;;;;14.80;7.63;;;;;;;15.87;99.57;95947.53;2032966;29;20120;-62
2022/06/23 04:47:05;;;;;;;14.55;6.88;;;;;;;15.82;98.87;95939.16;2043813;29;20036;-62
2022/06/23 04:48:12;;;;;;;17.45;6.88;;;;;;;15.80;98.13;95941.91;2048580;29;20047;-63
2022/06/23 04:49:22;;;;;;;17.48;6.90;;;;;;;15.81;99.21;95940.94;2041669;29;20055;-63
2022/06/23 04:50:33;;;;;;;11.65;6.35;;;;;;;15.89;97.80;95940.41;2041994;29;20055;-63
2022/06/23 04:51:38;;;;;;;10.23;6.40;;;;;;;15.89;98.55;95940.41;2034694;29;20051;-63
2022/06/23 04:52:43;;;;;;;11.45;5.90;;;;;;;15.89;98.59;95940.41;2042102;29;20066;-61
2022/06/23 04:53:59;;;;;;;8.35;5.82;;;;;;;15.84;96.76;95939.91;2040876;29;20055;-63
2022/06/23 04:55:28;;;;;;;15.48;6.25;;;;;;;15.82;97.25;95941.78;2035614;29;20051;-65
2022/06/23 04:56:46;;;;;;;14.95;6.32;;;;;;;15.89;98.30;95943.03;2032586;29;20074;-61
2022/06/23 04:57:53;;;;;;;15.32;5.43;;;;;;;15.82;97.31;95944.41;2045176;28;20044;-62
2022/06/23 04:58:59;;;;;;;17.67;6.50;;;;;;;15.78;97.14;95945.56;2048710;29;20072;-65
2022/06/23 05:00:01;;;;;;;12.93;5.57;;;;;;;15.80;96.92;95951.53;2042036;29;20043;-65
2022/06/23 05:01:02;;;;;;;17.13;6.05;;;;;;;15.72;96.53;95935.53;2048602;28;20055;-62
2022/06/23 05:02:21;;;;;;;14.77;6.63;;;;;;;15.71;97.70;95947.75;2048846;29;20051;-62
2022/06/23 05:03:44;;;;;;;12.70;6.25;;;;;;;15.75;98.14;95943.16;2043441;29;20047;-62
2022/06/23 05:04:46;;;;;;;18.55;6.53;;;;;;;15.64;97.13;95947.31;2049023;29;20405;-63
2022/06/23 05:06:09;;;;;;;17.00;6.63;;;;;;;15.62;97.39;95943.13;2048725;29;20051;-63
2022/06/23 05:07:21;;;;;;;11.73;6.35;;;;;;;15.64;97.44;95939.47;2036217;29;20049;-62
2022/06/23 05:08:26;;;;;;;14.93;7.03;;;;;;;15.64;96.90;95947.31;2035463;29;20665;-65
2022/06/23 05:09:42;;;;;;;18.33;6.90;;;;;;;15.68;97.70;95950.56;2049118;29;20517;-65
2022/06/23 05:10:47;;;;;;;16.60;6.72;;;;;;;15.71;96.90;95947.75;2041186;29;20050;-62
2022/06/23 05:11:51;;;;;;;17.25;7.63;;;;;;;15.73;96.43;95947.66;2041280;29;20052;-62
2022/06/23 05:12:55;;;;;;;16.17;6.65;;;;;;;15.72;97.06;95946.00;2025884;29;20047;-61
2022/06/23 05:14:00;;;;;;;12.43;6.90;;;;;;;15.74;97.28;95946.72;2027012;29;20045;-62
2022/06/23 05:15:12;;;;;;;16.80;7.15;;;;;;;15.69;96.59;95946.19;2032581;29;20551;-62
2022/06/23 05:16:19;;;;;;;17.17;6.45;;;;;;;15.71;96.44;95946.91;2037609;28;20070;-62
2022/06/23 05:17:23;;;;;;;16.90;7.80;;;;;;;15.65;96.52;95946.38;2040764;29;20533;-61
2022/06/23 05:18:27;;;;;;;11.25;7.60;;;;;;;15.74;96.52;95944.09;2026428;29;20056;-62
2022/06/23 05:19:32;;;;;;;14.35;7.00;;;;;;;15.78;97.12;95950.81;2033942;29;20063;-62
2022/06/23 05:20:41;;;;;;;14.13;7.63;;;;;;;15.83;95.86;95953.94;2041419;29;20537;-61
2022/06/23 05:21:46;;;;;;;12.02;6.78;;;;;;;15.86;96.33;95948.50;2042260;29;20040;-61
2022/06/23 05:22:47;;;;;;;17.10;7.28;;;;;;;15.75;96.11;95949.22;2049576;28;20432;-62
2022/06/23 05:23:50;;;;;;;12.48;6.50;;;;;;;15.90;96.43;95954.34;2056393;28;20078;-62
2022/06/23 05:24:52;;;;;;;13.55;6.82;;;;;;;15.89;95.62;95950.91;2048844;29;20046;-63
2022/06/23 05:25:54;;;;;;;16.60;7.63;;;;;;;15.88;95.20;95949.22;2040761;29;20058;-64
2022/06/23 05:26:59;;;;;;;15.70;7.22;;;;;;;15.99;95.83;95946.69;2033317;29;20526;-62